Time;durP1;ratioP1;P1;durP2;ratioP2;P2;SDS_P1;SDS_P2;PMS_P1;PMS_P2;Temp;Humidity;BMP_temperature;BMP_pressure;BME280_temperature;BME280_humidity;BME280_pressure;Samples;Min_cycle;Max_cycle;Signal;HPM_P1;HPM_P2
2021/11/27 00:00:09;;;;;;;13.70;8.97;;;4.80;99.90;;;;;;6090082;23;20567;-77
2021/11/27 00:02:35;;;;;;;12.37;9.30;;;4.80;99.90;;;;;;6090883;23;20586;-78
2021/11/27 00:05:01;;;;;;;12.00;8.40;;;4.80;99.90;;;;;;6089659;23;20606;-77
2021/11/27 00:07:27;;;;;;;12.73;9.43;;;5.00;99.90;;;;;;6089664;23;20199;-77
2021/11/27 00:09:53;;;;;;;10.20;8.90;;;4.90;99.90;;;;;;6091241;23;20598;-78
2021/11/27 00:12:21;;;;;;;11.93;9.17;;;4.80;99.90;;;;;;6091541;23;20610;-78
2021/11/27 00:14:47;;;;;;;12.47;9.70;;;4.80;99.90;;;;;;6090932;23;20171;-78
2021/11/27 00:17:15;;;;;;;11.03;9.03;;;4.80;99.90;;;;;;6091439;23;20615;-78
2021/11/27 00:19:40;;;;;;;12.67;9.90;;;4.70;99.90;;;;;;6090916;23;20721;-77
2021/11/27 00:22:06;;;;;;;15.47;10.40;;;4.80;99.90;;;;;;6090740;23;20591;-77
2021/11/27 00:24:32;;;;;;;11.60;9.60;;;4.90;99.90;;;;;;6093203;23;20476;-78
2021/11/27 00:26:58;;;;;;;10.40;8.80;;;4.70;99.90;;;;;;6090136;23;20190;-77
2021/11/27 00:29:23;;;;;;;13.10;9.13;;;4.80;99.90;;;;;;6090911;23;20609;-78
2021/11/27 00:31:50;;;;;;;11.97;9.17;;;4.70;99.90;;;;;;6087655;23;20203;-78
2021/11/27 00:34:16;;;;;;;12.30;9.80;;;4.70;99.90;;;;;;6091250;23;20202;-77
2021/11/27 00:36:48;;;;;;;12.20;9.17;;;4.70;99.90;;;;;;6114784;23;20626;-77
2021/11/27 00:39:17;;;;;;;11.93;8.97;;;4.70;99.90;;;;;;6091519;23;20887;-78
2021/11/27 00:41:46;;;;;;;12.43;9.10;;;4.80;99.90;;;;;;6088351;23;20901;-77
2021/11/27 00:44:22;;;;;;;12.63;8.97;;;4.70;99.90;;;;;;6090170;23;20587;-77
2021/11/27 00:46:48;;;;;;;9.90;8.53;;;4.80;99.90;;;;;;6090835;23;20599;-77
2021/11/27 00:49:18;;;;;;;11.90;9.33;;;4.80;99.90;;;;;;6093192;23;20962;-78
2021/11/27 00:51:44;;;;;;;12.00;9.60;;;4.70;99.90;;;;;;6113622;23;20628;-78
2021/11/27 00:54:10;;;;;;;12.00;9.70;;;4.70;99.90;;;;;;6091722;23;20567;-78
2021/11/27 00:56:36;;;;;;;15.17;9.57;;;4.80;99.90;;;;;;6093291;23;20622;-77
2021/11/27 00:59:04;;;;;;;11.60;9.33;;;4.80;99.90;;;;;;6093397;23;21021;-78
2021/11/27 01:01:33;;;;;;;11.73;9.50;;;4.80;99.90;;;;;;6090823;23;20666;-78
2021/11/27 01:04:02;;;;;;;11.37;8.97;;;4.80;99.90;;;;;;6093147;23;20570;-77
2021/11/27 01:06:31;;;;;;;11.43;9.40;;;4.90;99.90;;;;;;6094542;23;20606;-77
2021/11/27 01:09:00;;;;;;;14.53;9.47;;;4.90;99.90;;;;;;6091736;23;21089;-77
2021/11/27 01:11:48;;;;;;;13.20;9.03;;;4.90;99.90;;;;;;6090128;23;20774;-78
2021/11/27 01:14:20;;;;;;;14.27;9.50;;;4.90;99.90;;;;;;6095037;23;20963;-76
2021/11/27 01:16:53;;;;;;;10.57;8.80;;;5.00;99.90;;;;;;6091140;23;20653;-76
2021/11/27 01:19:24;;;;;;;12.47;9.60;;;5.00;99.90;;;;;;6092528;23;20587;-77
2021/11/27 01:21:56;;;;;;;12.40;9.33;;;5.00;99.90;;;;;;6091917;23;21220;-77
2021/11/27 01:24:25;;;;;;;10.90;8.50;;;5.00;99.90;;;;;;6093295;23;20563;-77
2021/11/27 01:26:52;;;;;;;12.53;10.10;;;5.10;99.90;;;;;;6094997;23;20578;-77
2021/11/27 01:29:23;;;;;;;11.27;8.47;;;5.10;99.90;;;;;;6093241;23;20595;-77
2021/11/27 01:31:49;;;;;;;11.87;9.07;;;5.10;99.90;;;;;;6091073;23;20609;-76
2021/11/27 01:34:17;;;;;;;10.13;9.03;;;5.00;99.90;;;;;;6094364;23;20545;-76
2021/11/27 01:36:43;;;;;;;11.67;9.47;;;5.00;99.90;;;;;;6115822;23;21010;-77
2021/11/27 01:39:09;;;;;;;12.43;9.53;;;4.90;99.90;;;;;;6094264;23;21113;-77
2021/11/27 01:41:36;;;;;;;10.40;9.00;;;5.00;99.90;;;;;;6115098;23;20587;-77
2021/11/27 01:44:05;;;;;;;12.67;9.77;;;4.50;99.90;;;;;;6091743;23;20195;-76
2021/11/27 01:46:33;;;;;;;11.90;9.33;;;5.10;99.90;;;;;;6092435;23;20706;-77
2021/11/27 01:49:00;;;;;;;12.57;9.40;;;5.00;99.90;;;;;;6092603;23;20617;-77
2021/11/27 01:51:28;;;;;;;12.67;9.07;;;5.10;99.90;;;;;;6093397;23;20591;-77
2021/11/27 01:53:58;;;;;;;11.53;9.20;;;5.10;99.90;;;;;;6092587;23;20575;-77
2021/11/27 01:56:45;;;;;;;9.70;8.43;;;5.20;99.90;;;;;;6096627;23;20696;-77
2021/11/27 01:59:14;;;;;;;14.10;10.13;;;5.20;99.90;;;;;;6097653;23;20555;-78
2021/11/27 02:01:42;;;;;;;12.00;10.07;;;5.10;99.90;;;;;;6096025;23;20587;-77
2021/11/27 02:04:09;;;;;;;11.90;9.00;;;5.10;99.90;;;;;;6100881;23;20894;-77
2021/11/27 02:06:40;;;;;;;12.00;9.37;;;5.20;99.90;;;;;;6124945;23;20693;-78
2021/11/27 02:09:31;;;;;;;10.90;9.20;;;5.20;99.90;;;;;;6103747;23;20519;-78
2021/11/27 02:12:01;;;;;;;12.03;9.47;;;5.20;99.90;;;;;;6124044;23;20645;-78
2021/11/27 02:14:27;;;;;;;10.67;8.50;;;5.20;99.90;;;;;;6101516;23;21026;-77
2021/11/27 02:16:57;;;;;;;12.33;9.10;;;5.10;99.90;;;;;;6102862;23;21012;-78
2021/11/27 02:19:23;;;;;;;10.43;8.77;;;5.20;99.90;;;;;;6100935;23;20590;-78
2021/11/27 02:21:52;;;;;;;13.13;9.70;;;5.10;99.90;;;;;;6102296;23;20591;-78
2021/11/27 02:24:20;;;;;;;13.00;9.43;;;5.20;99.90;;;;;;6103414;23;20548;-79
2021/11/27 02:26:47;;;;;;;15.67;10.57;;;5.20;99.90;;;;;;6103517;23;21126;-78
2021/11/27 02:29:17;;;;;;;11.03;9.53;;;5.10;99.90;;;;;;6102063;23;20601;-78
2021/11/27 02:31:48;;;;;;;11.13;8.70;;;5.10;99.90;;;;;;6104159;23;20642;-78
2021/11/27 02:34:17;;;;;;;11.07;8.30;;;5.20;99.90;;;;;;6104302;23;20595;-78
2021/11/27 02:36:48;;;;;;;13.20;9.33;;;5.20;99.90;;;;;;6104935;23;21023;-78
2021/11/27 02:39:18;;;;;;;13.70;8.90;;;5.10;99.90;;;;;;6102816;23;20675;-78
2021/11/27 02:41:45;;;;;;;11.90;9.57;;;5.20;99.90;;;;;;6090218;23;21227;-78
2021/11/27 02:44:11;;;;;;;14.47;9.63;;;5.20;99.90;;;;;;6092688;23;20538;-77
2021/11/27 02:46:41;;;;;;;13.57;9.60;;;5.30;99.90;;;;;;6092137;23;20650;-78
2021/11/27 02:49:09;;;;;;;11.73;9.50;;;5.30;99.90;;;;;;6091868;23;20626;-77
2021/11/27 02:51:36;;;;;;;12.57;8.93;;;5.30;99.90;;;;;;6114507;23;20594;-78
2021/11/27 02:54:04;;;;;;;13.70;9.80;;;5.30;99.90;;;;;;6114633;23;20580;-77
2021/11/27 02:56:30;;;;;;;12.80;10.00;;;5.30;99.90;;;;;;6115272;23;20634;-77
2021/11/27 02:58:56;;;;;;;15.40;10.50;;;5.30;99.90;;;;;;6090271;23;20566;-78
2021/11/27 03:01:22;;;;;;;14.37;10.63;;;5.10;99.90;;;;;;6092261;23;20879;-77
2021/11/27 03:03:48;;;;;;;14.87;10.10;;;5.20;99.90;;;;;;6091056;23;20182;-77
2021/11/27 03:06:16;;;;;;;14.10;10.63;;;5.10;99.90;;;;;;6091503;23;20163;-77
2021/11/27 03:08:45;;;;;;;12.63;9.53;;;5.00;99.90;;;;;;6087067;23;20581;-77
2021/11/27 03:11:10;;;;;;;15.30;10.93;;;5.10;99.90;;;;;;6090455;23;20867;-77
2021/11/27 03:13:38;;;;;;;15.40;11.03;;;5.00;99.90;;;;;;6092512;23;20885;-77
2021/11/27 03:16:07;;;;;;;16.03;11.97;;;5.00;99.90;;;;;;6089682;23;20182;-77
2021/11/27 03:18:33;;;;;;;15.80;11.30;;;5.10;99.90;;;;;;6091766;23;20595;-77
2021/11/27 03:21:01;;;;;;;18.27;11.50;;;5.10;99.90;;;;;;6091715;23;21010;-77
2021/11/27 03:23:27;;;;;;;15.30;11.07;;;5.10;99.90;;;;;;6090686;23;20662;-81
2021/11/27 03:25:57;;;;;;;12.97;9.67;;;5.10;99.90;;;;;;6091692;23;21227;-77
2021/11/27 03:28:22;;;;;;;18.40;10.77;;;5.10;99.90;;;;;;6094205;23;20151;-78
2021/11/27 03:30:49;;;;;;;15.87;10.87;;;5.20;99.90;;;;;;6094422;23;20630;-78
2021/11/27 03:33:15;;;;;;;13.90;10.97;;;5.10;99.90;;;;;;6089909;23;20329;-78
2021/11/27 03:35:40;;;;;;;13.83;10.73;;;5.10;99.90;;;;;;6092118;23;20535;-78
2021/11/27 03:38:07;;;;;;;14.60;11.03;;;5.20;99.90;;;;;;6090392;23;20195;-78
2021/11/27 03:40:37;;;;;;;15.90;11.30;;;5.20;99.90;;;;;;6091457;23;20159;-78
2021/11/27 03:43:05;;;;;;;18.73;11.87;;;5.20;99.90;;;;;;6090740;23;20689;-77
2021/11/27 03:45:34;;;;;;;17.70;11.80;;;5.20;99.90;;;;;;6093233;23;20874;-77
2021/11/27 03:48:07;;;;;;;14.80;11.30;;;5.20;99.90;;;;;;6093049;23;20670;-77
2021/11/27 03:50:39;;;;;;;15.73;11.53;;;5.20;99.90;;;;;;6092381;23;20543;-77
2021/11/27 03:53:09;;;;;;;18.83;11.90;;;5.20;99.90;;;;;;6092357;23;20599;-77
2021/11/27 03:55:35;;;;;;;16.70;11.33;;;5.20;99.90;;;;;;6097641;23;20649;-77
2021/11/27 03:58:03;;;;;;;18.00;12.33;;;5.20;99.90;;;;;;6103283;23;20655;-78
2021/11/27 04:00:29;;;;;;;17.27;12.20;;;5.40;99.90;;;;;;6103993;23;20664;-77
2021/11/27 04:02:58;;;;;;;19.30;12.57;;;5.20;99.90;;;;;;6103241;23;20590;-77
2021/11/27 04:05:25;;;;;;;16.63;12.33;;;5.20;99.90;;;;;;6104518;23;20581;-77
2021/11/27 04:07:55;;;;;;;17.37;12.47;;;5.20;99.90;;;;;;6105224;23;20630;-77
2021/11/27 04:10:25;;;;;;;16.77;11.20;;;5.20;99.90;;;;;;6104528;23;20499;-77
2021/11/27 04:12:50;;;;;;;18.20;12.03;;;5.20;99.90;;;;;;6100579;23;20616;-77
2021/11/27 04:15:16;;;;;;;13.73;10.67;;;5.20;99.90;;;;;;6097508;23;21089;-77
2021/11/27 04:17:49;;;;;;;18.77;11.80;;;5.20;99.90;;;;;;6097814;23;20298;-77
2021/11/27 04:20:16;;;;;;;18.73;12.50;;;5.20;99.90;;;;;;6099564;23;20594;-77
2021/11/27 04:22:41;;;;;;;17.80;12.63;;;5.30;99.90;;;;;;6101254;23;21111;-77
2021/11/27 04:25:08;;;;;;;15.90;12.40;;;5.30;99.90;;;;;;6102006;23;21081;-77
2021/11/27 04:27:38;;;;;;;16.20;11.87;;;5.30;99.90;;;;;;6104311;23;20183;-77
2021/11/27 04:30:08;;;;;;;16.40;12.87;;;5.20;99.90;;;;;;6103492;23;20650;-77
2021/11/27 04:32:36;;;;;;;18.30;12.40;;;5.20;99.90;;;;;;6101329;23;20653;-77
2021/11/27 04:35:04;;;;;;;16.73;11.97;;;5.20;99.90;;;;;;6107162;23;21084;-77
2021/11/27 04:37:34;;;;;;;19.17;12.77;;;5.20;99.90;;;;;;6111738;23;20737;-77
2021/11/27 04:40:00;;;;;;;19.60;12.47;;;5.20;99.90;;;;;;6110246;23;20598;-80
2021/11/27 04:42:26;;;;;;;17.60;12.97;;;5.20;99.90;;;;;;6105911;23;20591;-78
2021/11/27 04:44:54;;;;;;;18.27;12.47;;;5.20;99.90;;;;;;6106233;23;20563;-79
2021/11/27 04:47:20;;;;;;;18.20;12.30;;;5.30;99.90;;;;;;6106759;23;20542;-79
2021/11/27 04:49:46;;;;;;;16.27;12.03;;;5.20;99.90;;;;;;6108959;23;20575;-79
2021/11/27 04:52:11;;;;;;;17.97;13.40;;;5.20;99.90;;;;;;6108040;23;20226;-79
2021/11/27 04:54:37;;;;;;;16.60;12.67;;;5.10;99.90;;;;;;6108169;23;20228;-79
2021/11/27 04:57:03;;;;;;;17.37;12.83;;;5.00;99.90;;;;;;6096473;23;20193;-78
2021/11/27 04:59:32;;;;;;;20.63;13.10;;;5.10;99.90;;;;;;6093442;23;20159;-79
2021/11/27 05:02:01;;;;;;;17.47;12.90;;;5.00;99.90;;;;;;6093307;23;20203;-78
2021/11/27 05:04:28;;;;;;;17.70;12.47;;;5.10;99.90;;;;;;6092739;23;21034;-78
2021/11/27 05:06:54;;;;;;;17.33;12.63;;;5.00;99.90;;;;;;6092488;23;20697;-79
2021/11/27 05:09:19;;;;;;;19.43;12.83;;;5.00;99.90;;;;;;6094138;23;20554;-79
2021/11/27 05:11:50;;;;;;;17.30;12.83;;;4.90;99.90;;;;;;6092714;23;20600;-78
2021/11/27 05:14:19;;;;;;;16.97;12.23;;;4.90;99.90;;;;;;6093076;23;20171;-79
2021/11/27 05:16:44;;;;;;;18.13;11.90;;;4.90;99.90;;;;;;6094268;23;20595;-79
2021/11/27 05:19:10;;;;;;;15.80;11.70;;;5.00;99.90;;;;;;6092273;23;20688;-78
2021/11/27 05:21:36;;;;;;;17.63;12.70;;;5.00;99.90;;;;;;6093040;23;20214;-78
2021/11/27 05:24:04;;;;;;;18.77;12.70;;;4.90;99.90;;;;;;6093971;23;20151;-79
2021/11/27 05:26:30;;;;;;;17.00;12.50;;;4.90;99.90;;;;;;6093930;23;20253;-79
2021/11/27 05:28:55;;;;;;;17.40;12.47;;;4.90;99.90;;;;;;6095381;23;20574;-78
2021/11/27 05:31:22;;;;;;;18.53;12.40;;;4.90;99.90;;;;;;6093728;23;20210;-79
2021/11/27 05:34:10;;;;;;;16.30;12.00;;;4.90;99.90;;;;;;6094679;23;20163;-79
2021/11/27 05:36:39;;;;;;;17.40;12.20;;;4.90;99.90;;;;;;6093177;23;20626;-78
2021/11/27 05:39:05;;;;;;;18.10;13.17;;;4.90;99.90;;;;;;6094864;23;20554;-78
2021/11/27 05:41:33;;;;;;;17.03;11.77;;;4.90;99.90;;;;;;6093065;23;20589;-78
2021/11/27 05:43:59;;;;;;;16.67;12.00;;;4.90;99.90;;;;;;6094935;23;20551;-78
2021/11/27 05:46:25;;;;;;;18.63;13.30;;;4.90;99.90;;;;;;6099324;23;20637;-79
2021/11/27 05:48:51;;;;;;;16.97;11.87;;;4.90;99.90;;;;;;6104176;23;20563;-79
2021/11/27 05:51:17;;;;;;;17.63;12.13;;;4.90;99.90;;;;;;6098156;23;20175;-78
2021/11/27 05:53:43;;;;;;;20.73;13.03;;;4.70;99.90;;;;;;6096244;23;20171;-78
2021/11/27 05:56:09;;;;;;;16.80;12.27;;;4.90;99.90;;;;;;6096166;23;20539;-78
2021/11/27 05:58:35;;;;;;;16.20;11.73;;;4.90;99.90;;;;;;6096021;23;20582;-79
2021/11/27 06:01:05;;;;;;;19.20;13.47;;;4.90;99.90;;;;;;6093641;23;20589;-79
2021/11/27 06:03:32;;;;;;;19.63;13.20;;;4.90;99.90;;;;;;6096828;23;20223;-78
2021/11/27 06:06:00;;;;;;;17.63;12.70;;;4.90;99.90;;;;;;6096234;23;20622;-79
2021/11/27 06:08:26;;;;;;;16.93;11.90;;;4.90;99.90;;;;;;6095760;23;20542;-78
2021/11/27 06:10:51;;;;;;;21.97;12.33;;;4.90;99.90;;;;;;6092018;23;20985;-78
2021/11/27 06:13:17;;;;;;;16.57;11.60;;;4.90;99.90;;;;;;6092701;23;20210;-78
2021/11/27 06:15:43;;;;;;;17.53;12.13;;;4.90;99.90;;;;;;6092719;23;20162;-77
2021/11/27 06:18:16;;;;;;;17.23;11.90;;;4.90;99.90;;;;;;6092683;23;20298;-77
2021/11/27 06:20:44;;;;;;;16.77;12.47;;;4.90;99.90;;;;;;6092686;23;20163;-77
2021/11/27 06:23:10;;;;;;;16.93;11.87;;;4.90;99.90;;;;;;6091434;23;20590;-78
2021/11/27 06:25:36;;;;;;;17.10;11.70;;;4.90;99.90;;;;;;6094236;23;20590;-77
2021/11/27 06:28:10;;;;;;;17.43;12.30;;;4.90;99.90;;;;;;6095252;23;20701;-78
2021/11/27 06:30:41;;;;;;;19.70;13.23;;;4.90;99.90;;;;;;6094079;23;20171;-78
2021/11/27 06:33:09;;;;;;;18.37;12.47;;;4.90;99.90;;;;;;6091534;23;20594;-78
2021/11/27 06:35:41;;;;;;;18.97;12.93;;;4.90;99.90;;;;;;6095349;23;20532;-78
2021/11/27 06:38:10;;;;;;;19.03;12.27;;;4.90;99.90;;;;;;6094199;23;20657;-78
2021/11/27 06:40:39;;;;;;;18.20;12.90;;;4.90;99.90;;;;;;6093978;23;20559;-77
2021/11/27 06:43:08;;;;;;;18.37;11.70;;;4.90;99.90;;;;;;6092265;23;20621;-77
2021/11/27 06:45:36;;;;;;;16.23;12.53;;;4.90;99.90;;;;;;6094222;23;20527;-78
2021/11/27 06:48:01;;;;;;;18.47;13.17;;;4.90;99.90;;;;;;6093406;23;20583;-78
2021/11/27 06:50:30;;;;;;;18.67;13.30;;;4.90;99.90;;;;;;6093788;23;20538;-77
2021/11/27 06:52:55;;;;;;;18.77;12.90;;;4.90;99.90;;;;;;6093112;23;20233;-78
2021/11/27 06:55:29;;;;;;;19.33;12.63;;;4.90;99.90;;;;;;6092719;23;20575;-77
2021/11/27 06:57:54;;;;;;;17.80;12.73;;;4.90;99.90;;;;;;6090844;23;20187;-78
2021/11/27 07:00:20;;;;;;;19.40;12.80;;;4.90;99.90;;;;;;6093211;23;20574;-78
2021/11/27 07:02:46;;;;;;;20.53;13.10;;;4.90;99.90;;;;;;6091912;23;20279;-78
2021/11/27 07:05:14;;;;;;;20.10;13.20;;;4.90;99.90;;;;;;6091794;23;20589;-78
2021/11/27 07:07:43;;;;;;;19.27;12.87;;;4.90;99.90;;;;;;6089025;23;20243;-77
2021/11/27 07:10:12;;;;;;;19.27;12.67;;;4.80;99.90;;;;;;6089521;23;20591;-77
2021/11/27 07:12:38;;;;;;;18.10;11.70;;;4.90;99.90;;;;;;6090108;23;21028;-77
2021/11/27 07:15:05;;;;;;;18.57;13.10;;;4.90;99.90;;;;;;6090293;23;21073;-78
2021/11/27 07:17:33;;;;;;;16.53;12.30;;;4.90;99.90;;;;;;6094829;23;20690;-78
2021/11/27 07:20:03;;;;;;;18.80;13.20;;;4.90;99.90;;;;;;6094339;23;20551;-78
2021/11/27 07:22:29;;;;;;;19.93;14.10;;;4.90;99.90;;;;;;6090036;23;20676;-78
2021/11/27 07:24:58;;;;;;;17.63;12.77;;;4.90;99.90;;;;;;6094215;23;20539;-77
2021/11/27 07:27:24;;;;;;;18.43;12.10;;;4.90;99.90;;;;;;6093705;23;20971;-77
2021/11/27 07:29:49;;;;;;;16.57;12.53;;;5.00;99.90;;;;;;6093695;23;20575;-78
2021/11/27 07:32:15;;;;;;;19.33;13.10;;;4.90;99.90;;;;;;6090655;23;20942;-78
2021/11/27 07:34:41;;;;;;;17.80;13.03;;;4.90;99.90;;;;;;6094259;23;20162;-77
2021/11/27 07:37:07;;;;;;;19.50;12.40;;;5.00;99.90;;;;;;6093458;23;20216;-77
2021/11/27 07:39:35;;;;;;;19.07;13.30;;;5.00;99.90;;;;;;6093301;23;21037;-78
2021/11/27 07:42:03;;;;;;;18.87;12.40;;;5.00;99.90;;;;;;6090608;23;20195;-77
2021/11/27 07:44:29;;;;;;;21.40;14.20;;;5.00;99.90;;;;;;6094014;23;21140;-77
2021/11/27 07:46:56;;;;;;;20.00;13.70;;;5.00;99.90;;;;;;6090880;23;20634;-78
2021/11/27 07:49:25;;;;;;;17.90;13.30;;;5.00;99.90;;;;;;6093191;23;20186;-78
2021/11/27 07:51:54;;;;;;;17.30;12.20;;;5.00;99.90;;;;;;6091705;23;20594;-78
2021/11/27 07:54:25;;;;;;;19.63;12.93;;;5.00;99.90;;;;;;6092240;23;20574;-77
2021/11/27 07:56:54;;;;;;;20.77;13.83;;;5.00;99.90;;;;;;6091031;23;20762;-78
2021/11/27 07:59:22;;;;;;;18.10;13.50;;;5.00;99.90;;;;;;6092781;23;21128;-77
2021/11/27 08:01:48;;;;;;;19.73;12.37;;;5.10;99.90;;;;;;6090956;23;21098;-77
2021/11/27 08:04:15;;;;;;;19.03;12.93;;;5.00;99.90;;;;;;6092005;23;20575;-78
2021/11/27 08:06:41;;;;;;;17.27;13.00;;;5.20;99.90;;;;;;6092659;23;20258;-78
2021/11/27 08:09:09;;;;;;;19.60;13.33;;;5.20;99.90;;;;;;6092725;23;20572;-78
2021/11/27 08:11:35;;;;;;;19.97;13.00;;;5.10;99.90;;;;;;6089760;23;20626;-76
2021/11/27 08:14:01;;;;;;;16.87;12.10;;;5.10;99.90;;;;;;6122011;23;20571;-78
2021/11/27 08:16:27;;;;;;;21.87;13.10;;;5.10;99.90;;;;;;6094843;23;20182;-78
2021/11/27 08:18:53;;;;;;;19.50;13.33;;;5.10;99.90;;;;;;6091065;23;20585;-78
2021/11/27 08:21:21;;;;;;;19.00;14.57;;;5.20;99.90;;;;;;6088647;23;20171;-78
2021/11/27 08:23:51;;;;;;;19.33;13.17;;;5.20;99.90;;;;;;6092389;23;20197;-78
2021/11/27 08:26:20;;;;;;;20.57;14.00;;;5.20;99.90;;;;;;6092792;23;20626;-78
2021/11/27 08:28:46;;;;;;;19.00;13.67;;;5.20;99.90;;;;;;6093518;23;21165;-78
2021/11/27 08:31:12;;;;;;;22.57;13.80;;;5.20;99.90;;;;;;6093000;23;20559;-79
2021/11/27 08:33:43;;;;;;;20.20;13.60;;;5.20;99.90;;;;;;6094360;23;20690;-79
2021/11/27 08:36:09;;;;;;;20.70;13.60;;;5.20;99.90;;;;;;6093724;23;20555;-79
2021/11/27 08:38:37;;;;;;;19.57;13.77;;;5.20;99.90;;;;;;6096317;23;20538;-79
2021/11/27 08:41:07;;;;;;;20.93;13.73;;;5.20;99.90;;;;;;6095969;23;20571;-79
2021/11/27 08:43:33;;;;;;;20.10;13.90;;;5.20;99.90;;;;;;6094877;23;20619;-79
2021/11/27 08:46:01;;;;;;;16.83;13.37;;;5.30;99.90;;;;;;6093217;23;21095;-79
2021/11/27 08:48:41;;;;;;;20.50;13.60;;;5.30;99.90;;;;;;6094071;23;20579;-79
2021/11/27 08:51:11;;;;;;;22.73;14.97;;;5.40;99.90;;;;;;6092246;23;20613;-77
2021/11/27 08:53:38;;;;;;;20.30;14.63;;;5.30;99.90;;;;;;6098532;23;20531;-77
2021/11/27 08:56:06;;;;;;;18.30;14.40;;;5.40;99.90;;;;;;6093565;23;20570;-77
2021/11/27 08:58:31;;;;;;;21.07;14.57;;;5.40;99.90;;;;;;6095364;23;20565;-77
2021/11/27 09:01:03;;;;;;;20.37;13.60;;;5.50;99.90;;;;;;6093305;23;20645;-77
2021/11/27 09:03:28;;;;;;;19.43;14.10;;;5.50;99.90;;;;;;6091100;23;20194;-77
2021/11/27 09:05:54;;;;;;;22.03;15.20;;;5.50;99.90;;;;;;6095254;23;20985;-77
2021/11/27 09:08:20;;;;;;;18.83;13.00;;;5.40;99.90;;;;;;6094343;23;20551;-77
2021/11/27 09:10:49;;;;;;;19.43;13.93;;;5.40;99.90;;;;;;6096727;23;20163;-77
2021/11/27 09:13:15;;;;;;;22.37;14.30;;;5.50;99.90;;;;;;6088912;23;20249;-77
2021/11/27 09:15:41;;;;;;;19.60;13.20;;;5.40;99.90;;;;;;6092015;23;20562;-78
2021/11/27 09:18:09;;;;;;;21.00;13.90;;;5.40;99.90;;;;;;6093769;23;20634;-77
2021/11/27 09:20:35;;;;;;;19.10;13.90;;;5.40;99.90;;;;;;6097136;23;20178;-77
2021/11/27 09:23:02;;;;;;;20.80;14.20;;;5.40;99.90;;;;;;6095888;23;21203;-77
2021/11/27 09:25:29;;;;;;;19.17;14.50;;;5.40;99.90;;;;;;6094489;23;20567;-77
2021/11/27 09:27:56;;;;;;;17.90;12.90;;;5.50;99.90;;;;;;6094683;23;20976;-77
2021/11/27 09:30:22;;;;;;;18.43;14.37;;;5.50;99.90;;;;;;6096225;23;20610;-77
2021/11/27 09:32:48;;;;;;;20.53;14.50;;;5.50;99.90;;;;;;6093815;23;21132;-77
2021/11/27 09:35:13;;;;;;;20.90;14.60;;;5.50;99.90;;;;;;6095168;23;20545;-77
2021/11/27 09:37:40;;;;;;;16.80;13.57;;;5.50;99.90;;;;;;6095400;23;20179;-77
2021/11/27 09:40:07;;;;;;;19.50;13.53;;;5.60;99.90;;;;;;6093592;23;20570;-77
2021/11/27 09:42:33;;;;;;;19.43;13.77;;;5.50;99.90;;;;;;6094675;23;20595;-77
2021/11/27 09:45:01;;;;;;;19.63;14.20;;;5.60;99.90;;;;;;6103474;23;20611;-76
2021/11/27 09:47:28;;;;;;;21.23;14.53;;;5.60;99.90;;;;;;6099991;23;20638;-76
2021/11/27 09:49:56;;;;;;;18.40;13.43;;;5.60;99.90;;;;;;6096851;23;20890;-77
2021/11/27 09:52:22;;;;;;;21.13;15.13;;;5.70;99.90;;;;;;6093482;23;20603;-78
2021/11/27 09:54:50;;;;;;;20.97;14.07;;;5.60;99.90;;;;;;6095258;23;20563;-77
2021/11/27 09:57:15;;;;;;;17.80;13.63;;;5.60;99.90;;;;;;6096523;23;20529;-76
2021/11/27 09:59:45;;;;;;;25.33;14.47;;;5.60;99.90;;;;;;6097601;23;20536;-77
2021/11/27 10:02:14;;;;;;;20.63;14.40;;;5.80;99.90;;;;;;6094746;23;20195;-76
2021/11/27 10:04:51;;;;;;;20.13;14.87;;;5.70;99.90;;;;;;6102860;23;20599;-77
2021/11/27 10:07:18;;;;;;;21.97;15.37;;;5.70;99.90;;;;;;6097806;23;20925;-77
2021/11/27 10:09:46;;;;;;;22.40;16.10;;;5.70;99.90;;;;;;6097486;23;21241;-77
2021/11/27 10:12:13;;;;;;;20.07;14.53;;;5.70;99.90;;;;;;6096219;23;21161;-77
2021/11/27 10:14:40;;;;;;;19.00;13.60;;;5.70;99.90;;;;;;6097767;23;20610;-76
2021/11/27 10:17:16;;;;;;;18.67;14.10;;;5.60;99.90;;;;;;6094793;23;20617;-76
2021/11/27 10:19:41;;;;;;;18.13;13.47;;;5.50;99.90;;;;;;6095178;23;20604;-77
2021/11/27 10:22:09;;;;;;;20.07;14.13;;;5.50;99.90;;;;;;6095998;23;21216;-77
2021/11/27 10:24:36;;;;;;;18.70;14.17;;;5.60;99.90;;;;;;6092867;23;20779;-76
2021/11/27 10:27:15;;;;;;;19.70;14.13;;;5.60;99.90;;;;;;6093240;23;20606;-77
2021/11/27 10:29:41;;;;;;;19.33;14.37;;;5.60;99.90;;;;;;6096049;23;20591;-77
2021/11/27 10:32:18;;;;;;;21.57;15.30;;;5.60;99.90;;;;;;6092690;23;20673;-77
2021/11/27 10:34:50;;;;;;;19.10;14.83;;;5.60;99.90;;;;;;6095661;23;20573;-77
2021/11/27 10:37:32;;;;;;;17.50;13.47;;;5.60;99.90;;;;;;6096912;23;20598;-77
2021/11/27 10:40:09;;;;;;;19.60;14.80;;;5.60;99.90;;;;;;6095185;23;21030;-78
2021/11/27 10:42:36;;;;;;;20.60;14.40;;;5.60;99.90;;;;;;6103210;23;20681;-78
2021/11/27 10:45:19;;;;;;;20.17;14.30;;;5.70;99.90;;;;;;6108047;23;20582;-77
2021/11/27 10:47:50;;;;;;;21.23;14.57;;;5.70;99.90;;;;;;6099421;23;20567;-77
2021/11/27 10:50:22;;;;;;;20.77;13.60;;;5.70;99.90;;;;;;6096833;23;20593;-78
2021/11/27 10:52:54;;;;;;;18.37;13.50;;;5.70;99.90;;;;;;6100018;23;20610;-78
2021/11/27 10:58:59;;;;;;;19.17;13.33;;;5.70;99.90;;;;;;6094712;23;20719;-74
2021/11/27 11:01:26;;;;;;;19.70;13.70;;;5.70;99.90;;;;;;6095476;23;20607;-74
2021/11/27 11:03:52;;;;;;;19.87;14.63;;;5.70;99.90;;;;;;6091530;23;20571;-74
2021/11/27 11:06:27;;;;;;;19.37;14.70;;;5.70;99.90;;;;;;6093780;23;20610;-74
2021/11/27 11:08:53;;;;;;;23.07;15.37;;;5.80;99.90;;;;;;6091759;23;21025;-74
2021/11/27 11:11:25;;;;;;;19.30;14.10;;;5.70;99.90;;;;;;6093656;23;20565;-73
2021/11/27 11:13:56;;;;;;;18.53;13.93;;;5.70;99.90;;;;;;6110213;23;20555;-75
2021/11/27 11:16:29;;;;;;;19.83;14.03;;;5.70;99.90;;;;;;6114717;23;20635;-74
2021/11/27 11:19:15;;;;;;;19.17;14.40;;;5.70;99.90;;;;;;6094966;23;20575;-74
2021/11/27 11:22:13;;;;;;;19.13;14.37;;;5.70;99.90;;;;;;6094516;23;20597;-74
2021/11/27 11:24:41;;;;;;;17.63;12.90;;;5.70;99.90;;;;;;6094088;23;20586;-74
2021/11/27 11:27:09;;;;;;;19.77;14.07;;;5.70;99.90;;;;;;6094768;23;20667;-74
2021/11/27 11:29:46;;;;;;;17.93;14.23;;;5.70;99.90;;;;;;6093175;23;21092;-74
2021/11/27 11:32:23;;;;;;;22.03;14.57;;;5.70;99.90;;;;;;6092271;23;20627;-74
2021/11/27 11:34:52;;;;;;;18.30;13.30;;;5.70;99.90;;;;;;6094190;23;21021;-74
2021/11/27 11:37:18;;;;;;;21.30;13.30;;;5.70;99.90;;;;;;6093990;23;20921;-74
2021/11/27 11:39:46;;;;;;;21.60;13.77;;;5.70;99.90;;;;;;6094872;23;20603;-74
2021/11/27 11:42:11;;;;;;;18.43;13.80;;;5.70;99.90;;;;;;6093190;23;20165;-74
2021/11/27 11:44:41;;;;;;;20.67;13.87;;;5.70;99.90;;;;;;6092474;23;20575;-74
2021/11/27 11:47:08;;;;;;;17.10;12.87;;;5.70;99.90;;;;;;6091998;23;20167;-74
2021/11/27 11:49:35;;;;;;;20.07;13.57;;;5.60;99.90;;;;;;6092681;23;20540;-75
2021/11/27 11:52:11;;;;;;;20.70;13.97;;;5.60;99.90;;;;;;6094668;23;20650;-74
2021/11/27 11:54:38;;;;;;;15.97;13.30;;;5.60;99.90;;;;;;6094279;23;20523;-74
2021/11/27 11:57:03;;;;;;;17.17;13.93;;;5.60;99.90;;;;;;6094857;23;20658;-75
2021/11/27 11:59:32;;;;;;;16.60;12.77;;;5.60;99.90;;;;;;6094761;23;20527;-75
2021/11/27 12:02:24;;;;;;;14.70;12.33;;;5.60;99.90;;;;;;6113639;23;20173;-75
2021/11/27 12:05:12;;;;;;;19.40;13.70;;;5.60;99.90;;;;;;6122949;23;20626;-78
2021/11/27 12:07:44;;;;;;;18.43;13.17;;;5.60;99.90;;;;;;6097202;23;20568;-75
2021/11/27 12:10:18;;;;;;;16.13;12.20;;;5.60;99.90;;;;;;6124016;23;20647;-75
2021/11/27 12:12:45;;;;;;;17.10;12.73;;;5.70;99.90;;;;;;6096653;23;20576;-75
2021/11/27 12:15:12;;;;;;;17.57;13.07;;;5.60;99.90;;;;;;6121179;23;20534;-75
2021/11/27 12:18:05;;;;;;;16.90;12.33;;;5.60;99.90;;;;;;6121999;23;20684;-75
2021/11/27 12:20:53;;;;;;;17.37;13.93;;;5.60;99.90;;;;;;6121693;23;20601;-75
2021/11/27 12:23:28;;;;;;;14.70;11.67;;;5.50;99.90;;;;;;6097177;23;21119;-74
2021/11/27 12:26:10;;;;;;;16.70;12.40;;;5.50;99.90;;;;;;6096933;23;20672;-75
2021/11/27 12:28:40;;;;;;;17.20;12.03;;;5.50;99.90;;;;;;6097058;23;20566;-75
2021/11/27 12:31:09;;;;;;;11.67;10.00;;;5.50;99.90;;;;;;6089116;23;21210;-76
2021/11/27 12:33:45;;;;;;;13.80;10.50;;;5.50;99.90;;;;;;6117767;23;20546;-75
2021/11/27 12:36:22;;;;;;;13.80;9.90;;;5.40;99.90;;;;;;6122770;23;20499;-75
2021/11/27 12:39:20;;;;;;;12.90;10.40;;;5.40;99.90;;;;;;6094926;23;20561;-75
2021/11/27 12:41:52;;;;;;;12.90;10.80;;;5.40;99.90;;;;;;6118098;23;20570;-76
2021/11/27 12:44:27;;;;;;;13.33;10.60;;;5.40;99.90;;;;;;6121155;23;20519;-75
2021/11/27 12:47:00;;;;;;;14.33;9.87;;;5.30;99.90;;;;;;6118599;23;20557;-75
2021/11/27 12:49:32;;;;;;;12.60;10.33;;;5.30;99.90;;;;;;6094504;23;20569;-75